Time;durP1;ratioP1;P1;durP2;ratioP2;P2;SDS_P1;SDS_P2;PMS_P1;PMS_P2;Temp;Humidity;BMP_temperature;BMP_pressure;BME280_temperature;BME280_humidity;BME280_pressure;Samples;Min_cycle;Max_cycle;Signal;HPM_P1;HPM_P2
2022/08/19 00:01:42;;;;;;;12.93;10.00;;;;;;;25.47;100.00;101186.59;5080413;28;19917;-46
2022/08/19 00:04:10;;;;;;;13.73;9.97;;;;;;;25.37;100.00;101186.63;5082796;28;20100;-48
2022/08/19 00:06:37;;;;;;;15.90;10.17;;;;;;;25.30;100.00;101187.78;5079453;28;20061;-45
2022/08/19 00:09:06;;;;;;;17.83;11.37;;;;;;;25.39;100.00;101192.66;5083765;28;20032;-48
2022/08/19 00:11:32;;;;;;;17.50;10.57;;;;;;;25.32;100.00;101188.31;5082682;28;20108;-54
2022/08/19 00:13:57;;;;;;;;;;;;;;;25.24;100.00;101196.31;5083931;28;20029;-51
2022/08/19 00:16:24;;;;;;;14.40;9.73;;;;;;;25.17;100.00;101193.94;5082720;28;19934;-48
2022/08/19 00:18:50;;;;;;;17.40;11.00;;;;;;;25.17;100.00;101193.94;5084799;28;20029;-48
2022/08/19 00:21:16;;;;;;;13.90;9.98;;;;;;;25.12;100.00;101199.44;5084218;28;20056;-51
2022/08/19 00:23:42;;;;;;;17.08;10.77;;;;;;;25.08;100.00;101192.91;5085437;28;20036;-49
2022/08/19 00:26:09;;;;;;;13.47;10.03;;;;;;;25.12;100.00;101196.69;5086767;28;20032;-51
2022/08/19 00:28:36;;;;;;;16.40;9.60;;;;;;;25.09;100.00;101197.25;5088515;28;20035;-51
2022/08/19 00:31:04;;;;;;;;;;;;;;;25.05;100.00;101195.09;5088698;28;20028;-48
2022/08/19 00:33:32;;;;;;;17.37;10.63;;;;;;;25.00;100.00;101200.63;5083459;28;19923;-47
2022/08/19 00:36:04;;;;;;;16.10;11.43;;;;;;;24.96;100.00;101191.34;5086700;28;20032;-47
2022/08/19 00:38:30;;;;;;;13.93;10.07;;;;;;;24.94;100.00;101185.34;5083382;28;20029;-47
2022/08/19 00:40:56;;;;;;;;;;;;;;;24.96;100.00;101193.25;5075833;28;20047;-49
2022/08/19 00:43:24;;;;;;;14.97;10.37;;;;;;;24.91;100.00;101192.19;5080822;28;19916;-48
2022/08/19 00:45:49;;;;;;;18.13;11.93;;;;;;;24.87;100.00;101196.59;5081217;28;20037;-46
2022/08/19 00:48:16;;;;;;;17.52;12.30;;;;;;;24.83;100.00;101192.81;5084626;28;20047;-47
2022/08/19 00:50:44;;;;;;;19.93;11.80;;;;;;;24.82;100.00;101193.06;5083399;28;20062;-45
2022/08/19 00:53:11;;;;;;;19.40;11.27;;;;;;;24.77;100.00;101197.47;5079939;28;20049;-45
2022/08/19 00:55:38;;;;;;;17.00;11.33;;;;;;;24.78;100.00;101209.22;5083071;28;20051;-45
2022/08/19 00:58:11;;;;;;;15.27;11.13;;;;;;;24.64;100.00;101200.81;5084099;28;20025;-51
2022/08/19 01:00:37;;;;;;;18.57;11.97;;;;;;;24.61;100.00;101202.19;5088262;28;20063;-47
2022/08/19 01:03:06;;;;;;;;;;;;;;;24.54;100.00;101193.47;5085694;28;20032;-46
2022/08/19 01:05:32;;;;;;;20.60;12.10;;;;;;;24.54;100.00;101192.66;5084677;28;19912;-46
2022/08/19 01:08:00;;;;;;;;;;;;;;;24.48;100.00;101189.13;5082206;28;20039;-51
2022/08/19 01:10:30;;;;;;;25.80;15.37;;;;;;;24.47;100.00;101191.06;5080570;28;19968;-48
2022/08/19 01:12:59;;;;;;;25.47;16.03;;;;;;;24.49;100.00;101180.66;5079311;28;20033;-50
2022/08/19 01:15:29;;;;;;;26.53;16.80;;;;;;;24.46;100.00;101194.91;5075181;28;20040;-47
2022/08/19 01:17:59;;;;;;;31.37;17.07;;;;;;;24.30;100.00;101185.13;5076467;28;20044;-51
2022/08/19 01:20:25;;;;;;;26.80;15.53;;;;;;;24.28;100.00;101190.06;5077633;28;20036;-49
2022/08/19 01:22:53;;;;;;;;;;;;;;;24.25;100.00;101198.81;5080979;28;20056;-49
2022/08/19 01:25:23;;;;;;;24.97;14.57;;;;;;;24.19;100.00;101196.09;5078100;28;19979;-46
2022/08/19 01:27:50;;;;;;;30.77;16.20;;;;;;;24.14;100.00;101198.84;5084205;28;20093;-51
2022/08/19 01:30:29;;;;;;;26.67;14.82;;;;;;;24.18;100.00;101207.31;5082267;28;20029;-47
2022/08/19 01:32:55;;;;;;;26.33;15.07;;;;;;;24.17;100.00;101211.16;5079328;28;20039;-47
2022/08/19 01:35:23;;;;;;;24.80;15.97;;;;;;;24.11;100.00;101202.13;5080925;28;20036;-48
2022/08/19 01:37:56;;;;;;;23.90;16.70;;;;;;;24.05;100.00;101197.81;5083258;28;20071;-49
2022/08/19 01:40:24;;;;;;;26.17;16.87;;;;;;;24.01;100.00;101192.06;5078957;28;20048;-49
2022/08/19 01:42:50;;;;;;;32.53;17.70;;;;;;;24.01;100.00;101199.44;5074203;28;20033;-46
2022/08/19 01:45:17;;;;;;;24.95;16.58;;;;;;;23.97;100.00;101196.41;5078947;28;20079;-49
2022/08/19 01:47:43;;;;;;;24.77;16.47;;;;;;;23.99;100.00;101198.84;5075162;28;20037;-45
2022/08/19 01:50:10;;;;;;;26.40;17.15;;;;;;;24.02;100.00;101190.97;5079181;28;20097;-48
2022/08/19 01:52:38;;;;;;;27.30;17.00;;;;;;;24.00;100.00;101195.84;5074219;28;20036;-50
2022/08/19 01:55:07;;;;;;;23.70;16.77;;;;;;;24.00;100.00;101200.53;5078548;28;20048;-46
2022/08/19 01:57:32;;;;;;;25.83;18.50;;;;;;;23.89;100.00;101192.34;5077723;28;20033;-50
2022/08/19 01:59:59;;;;;;;;;;;;;;;23.86;100.00;101195.63;5080289;28;20055;-48
2022/08/19 02:02:25;;;;;;;28.65;17.20;;;;;;;23.76;100.00;101193.75;5081740;28;19913;-47
2022/08/19 02:04:51;;;;;;;26.35;17.05;;;;;;;23.79;100.00;101200.56;5082318;28;20044;-48
2022/08/19 02:07:21;;;;;;;26.27;15.27;;;;;;;23.72;100.00;101198.13;5078997;28;20029;-47
2022/08/19 02:09:47;;;;;;;26.10;17.23;;;;;;;23.73;100.00;101194.28;5082980;28;20326;-51
2022/08/19 02:12:14;;;;;;;23.20;15.97;;;;;;;23.78;100.00;101196.19;5076301;28;20029;-49
2022/08/19 02:14:40;;;;;;;25.20;16.77;;;;;;;23.76;100.00;101195.66;5075586;28;20063;-47
2022/08/19 02:17:06;;;;;;;24.92;17.05;;;;;;;23.72;100.00;101195.38;5074288;28;20029;-47
2022/08/19 02:19:34;;;;;;;27.67;18.10;;;;;;;23.73;100.00;101210.69;5076464;28;20056;-47
2022/08/19 02:22:00;;;;;;;26.90;16.97;;;;;;;23.75;100.00;101199.47;5078581;28;20025;-51
2022/08/19 02:24:27;;;;;;;28.00;17.15;;;;;;;23.68;100.00;101198.94;5079716;28;20037;-50
2022/08/19 02:26:53;;;;;;;26.23;17.17;;;;;;;23.67;100.00;101208.22;5076120;28;20035;-49
2022/08/19 02:29:19;;;;;;;24.73;17.70;;;;;;;23.64;100.00;101204.13;5073641;28;20056;-51
2022/08/19 02:31:45;;;;;;;;;;;;;;;23.55;100.00;101213.97;5082493;28;20074;-49
2022/08/19 02:34:11;;;;;;;27.93;17.90;;;;;;;23.51;100.00;101210.16;5080488;28;19921;-47
2022/08/19 02:36:36;;;;;;;29.95;16.67;;;;;;;23.42;100.00;101221.63;5079993;28;20062;-52
2022/08/19 02:39:03;;;;;;;27.27;17.97;;;;;;;23.33;100.00;101218.63;5082859;28;20037;-47
2022/08/19 02:41:32;;;;;;;25.92;17.85;;;;;;;23.40;100.00;101225.72;5077762;28;20049;-52
2022/08/19 02:44:00;;;;;;;27.47;17.77;;;;;;;23.40;100.00;101209.34;5080126;28;20064;-52
2022/08/19 02:46:28;;;;;;;29.63;19.00;;;;;;;23.28;100.00;101213.16;5076598;28;20151;-52
2022/08/19 02:48:57;;;;;;;27.50;17.70;;;;;;;23.31;100.00;101218.09;5077311;28;20028;-52
2022/08/19 02:51:26;;;;;;;31.60;20.00;;;;;;;23.35;100.00;101218.34;5074666;28;20039;-50
2022/08/19 02:53:53;;;;;;;37.40;20.40;;;;;;;23.39;100.00;101224.88;5078343;28;20054;-54
2022/08/19 02:56:19;;;;;;;;;;;;;;;23.42;100.00;101223.53;5075885;28;20029;-47
2022/08/19 02:58:45;;;;;;;32.70;20.03;;;;;;;23.41;100.00;101221.91;5076666;28;19930;-48
2022/08/19 03:01:26;;;;;;;37.67;21.70;;;;;;;23.23;100.00;101217.78;5078794;28;20029;-52
2022/08/19 03:03:52;;;;;;;31.87;20.23;;;;;;;23.32;100.00;101219.72;5082049;28;20044;-48
2022/08/19 03:06:18;;;;;;;;;;;;;;;23.27;100.00;101227.88;5080666;28;20025;-47
2022/08/19 03:08:46;;;;;;;38.90;22.30;;;;;;;23.30;100.00;101227.38;5078594;28;19919;-51
2022/08/19 03:11:17;;;;;;;34.70;20.80;;;;;;;23.31;100.00;101237.19;5079269;28;20028;-53
2022/08/19 03:13:44;;;;;;;48.13;23.10;;;;;;;23.39;100.00;101230.34;5077729;28;20036;-46
2022/08/19 03:16:10;;;;;;;;;;;;;;;23.40;100.00;101225.72;5080372;28;20096;-50
2022/08/19 03:18:36;;;;;;;40.33;22.30;;;;;;;23.43;100.00;101211.53;5071716;28;19923;-49
2022/08/19 03:21:02;;;;;;;37.60;21.88;;;;;;;23.40;100.00;101228.44;5073749;28;20033;-45
2022/08/19 03:23:27;;;;;;;;;;;;;;;23.41;100.00;101219.16;5072280;28;20032;-50
2022/08/19 03:25:53;;;;;;;42.03;23.60;;;;;;;23.41;100.00;101216.44;5075675;28;19912;-47
2022/08/19 03:28:20;;;;;;;;;;;;;;;23.33;100.00;101213.16;5076860;28;20029;-50
2022/08/19 03:31:01;;;;;;;41.50;22.07;;;;;;;23.34;100.00;101214.81;5076364;28;19959;-48
2022/08/19 03:33:29;;;;;;;39.23;23.07;;;;;;;23.33;100.00;101215.06;5077520;28;20037;-48
2022/08/19 03:36:02;;;;;;;39.57;23.50;;;;;;;23.31;100.00;101223.53;5075948;28;20032;-47
2022/08/19 03:38:28;;;;;;;44.23;24.67;;;;;;;23.27;100.00;101221.63;5074932;28;20041;-46
2022/08/19 03:40:53;;;;;;;46.50;23.60;;;;;;;23.23;100.00;101224.03;5082947;28;20048;-48
2022/08/19 03:43:19;;;;;;;39.07;22.80;;;;;;;23.24;100.00;101208.50;5082189;28;20040;-49
2022/08/19 03:45:45;;;;;;;40.33;23.52;;;;;;;23.22;100.00;101214.22;5080751;28;20044;-48
2022/08/19 03:48:10;;;;;;;40.90;24.10;;;;;;;23.16;100.00;101220.75;5076394;28;20028;-48
2022/08/19 03:50:40;;;;;;;47.40;25.50;;;;;;;23.13;100.00;101219.38;5072598;28;20047;-49
2022/08/19 03:53:07;;;;;;;47.07;25.27;;;;;;;23.14;100.00;101212.03;5072611;28;20055;-46
2022/08/19 03:55:32;;;;;;;;;;;;;;;23.13;100.00;101218.59;5072958;28;20164;-47
2022/08/19 03:57:58;;;;;;;44.17;24.10;;;;;;;23.14;100.00;101214.75;5072211;28;19921;-49
2022/08/19 04:00:24;;;;;;;;;;;;;;;23.09;100.00;101214.75;5078040;28;20036;-47
2022/08/19 04:02:49;;;;;;;50.57;25.90;;;;;;;23.06;100.00;101216.91;5072884;28;19917;-46
2022/08/19 04:05:15;;;;;;;42.70;23.42;;;;;;;23.05;100.00;101209.03;5075391;28;20029;-50
2022/08/19 04:07:40;;;;;;;40.83;21.77;;;;;;;23.02;100.00;101204.91;5073477;28;20055;-47
2022/08/19 04:10:06;;;;;;;36.60;20.55;;;;;;;22.97;100.00;101207.63;5078851;28;20059;-53
2022/08/19 04:12:32;;;;;;;35.47;20.27;;;;;;;22.96;100.00;101203.28;5078583;28;20108;-48
2022/08/19 04:14:58;;;;;;;33.17;18.67;;;;;;;22.95;100.00;101198.91;5077740;28;20056;-47
2022/08/19 04:17:23;;;;;;;30.95;18.38;;;;;;;22.91;100.00;101197.81;5079077;28;20281;-47
2022/08/19 04:19:49;;;;;;;;;;;;;;;22.88;100.00;101198.38;5075424;28;20090;-45
2022/08/19 04:22:15;;;;;;;36.33;19.57;;;;;;;22.90;100.00;101207.09;5072890;28;19932;-50
2022/08/19 04:24:40;;;;;;;40.85;21.85;;;;;;;22.90;100.00;101207.09;5071650;28;20104;-51
2022/08/19 04:27:06;;;;;;;44.80;24.63;;;;;;;22.86;100.00;101206.00;5072840;28;20064;-52
2022/08/19 04:29:32;;;;;;;46.38;23.92;;;;;;;22.80;100.00;101199.72;5072408;28;20036;-51
2022/08/19 04:31:59;;;;;;;44.87;24.40;;;;;;;22.88;100.00;101190.19;5073708;28;20041;-49
2022/08/19 04:34:26;;;;;;;59.40;30.25;;;;;;;22.86;100.00;101190.44;5075733;28;20033;-52
2022/08/19 04:36:54;;;;;;;66.00;30.67;;;;;;;22.90;100.00;101196.19;5076561;28;20029;-48
2022/08/19 04:42:38;;;;;;;33.60;18.90;;;;;;;22.95;100.00;101190.72;5078946;28;20037;-48
2022/08/19 04:44:55;;;;;;;44.77;24.50;;;;;;;22.99;100.00;101197.28;5085841;28;20056;-51
2022/08/19 04:47:20;;;;;;;50.80;26.58;;;;;;;22.98;100.00;101203.81;5084815;28;20143;-49
2022/08/19 04:49:46;;;;;;;64.45;32.97;;;;;;;23.02;100.00;101195.94;5087375;28;20029;-48
2022/08/19 04:52:11;;;;;;;82.55;42.78;;;;;;;22.98;100.00;101197.56;5083905;28;20032;-47
2022/08/19 04:54:37;;;;;;;63.33;34.35;;;;;;;22.99;100.00;101200.00;5078403;28;20059;-46
2022/08/19 04:57:03;;;;;;;59.75;30.13;;;;;;;23.00;100.00;101204.38;5076442;28;20036;-45
2022/08/19 04:59:28;;;;;;;;;;;;;;;22.92;100.00;101196.72;5075671;28;20064;-48
2022/08/19 05:01:54;;;;;;;44.00;21.97;;;;;;;22.87;100.00;101204.91;5075761;28;19912;-46
2022/08/19 05:04:20;;;;;;;50.45;26.38;;;;;;;22.73;100.00;101208.13;5076581;28;20037;-49
2022/08/19 05:06:48;;;;;;;70.45;36.50;;;;;;;22.67;100.00;101208.38;5078933;28;20079;-49
2022/08/19 05:09:15;;;;;;;125.37;20.23;;;;;;;22.34;100.00;101212.06;5077577;28;20024;-50
2022/08/19 05:11:42;;;;;;;50.70;25.33;;;;;;;22.46;100.00;101220.06;5080224;28;20025;-46
2022/08/19 05:14:09;;;;;;;132.40;22.37;;;;;;;22.31;100.00;101217.22;5077222;28;20041;-49
2022/08/19 05:16:34;;;;;;;218.97;22.23;;;;;;;22.25;100.00;101223.75;5084231;28;20059;-48
2022/08/19 05:24:33;;;;;;;163.63;21.57;;;;;;;22.33;100.00;101239.56;5079094;28;20051;-46
2022/08/19 05:27:02;;;;;;;119.30;20.17;;;;;;;22.43;100.00;101242.34;5078873;28;20097;-50
2022/08/19 05:29:31;;;;;;;51.50;19.37;;;;;;;22.55;100.00;101235.88;5073613;28;20100;-50
2022/08/19 05:31:58;;;;;;;60.23;26.13;;;;;;;22.61;100.00;101243.00;5074596;28;20039;-49
2022/08/19 05:34:25;;;;;;;57.23;31.47;;;;;;;22.39;100.00;101243.16;5079679;28;20052;-48
2022/08/19 05:36:56;;;;;;;;;;;;;;;22.34;100.00;101246.66;5076296;28;20078;-49
2022/08/19 05:39:21;;;;;;;66.23;33.87;;;;;;;22.40;100.00;101247.50;5077879;28;19980;-51
2022/08/19 05:41:52;;;;;;;74.20;36.13;;;;;;;22.34;100.00;101255.66;5074906;28;20036;-46
2022/08/19 05:44:19;;;;;;;70.80;37.03;;;;;;;22.55;100.00;101244.06;5076759;28;20049;-46
2022/08/19 05:46:46;;;;;;;68.43;37.13;;;;;;;22.67;100.00;101241.09;5079708;28;20036;-51
2022/08/19 05:49:13;;;;;;;72.80;36.93;;;;;;;22.54;100.00;101242.41;5075730;28;20033;-48
2022/08/19 05:51:39;;;;;;;72.27;37.23;;;;;;;22.35;100.00;101240.13;5083466;28;20063;-50
2022/08/19 05:54:08;;;;;;;77.22;39.15;;;;;;;22.78;100.00;101243.59;5079302;28;20032;-49
2022/08/19 05:56:37;;;;;;;77.87;40.10;;;;;;;22.62;100.00;101252.81;5080750;28;20063;-51
2022/08/19 05:59:11;;;;;;;71.30;38.67;;;;;;;22.66;100.00;101256.66;5076925;28;20020;-49
2022/08/19 06:01:39;;;;;;;82.03;40.57;;;;;;;22.63;100.00;101247.09;5078410;28;20043;-48
2022/08/19 06:04:06;;;;;;;76.23;41.13;;;;;;;22.77;100.00;101252.84;5081802;28;20040;-46
2022/08/19 06:06:33;;;;;;;79.67;40.23;;;;;;;22.74;100.00;101253.41;5076047;28;20044;-49
2022/08/19 06:09:00;;;;;;;80.13;40.63;;;;;;;22.93;100.00;101247.44;5075694;28;20039;-48
2022/08/19 06:12:04;;;;;;;87.27;42.73;;;;;;;22.75;100.00;101255.03;5078186;28;20088;-46
2022/08/19 06:14:34;;;;;;;87.67;41.97;;;;;;;23.03;100.00;101252.13;5073527;28;20117;-50
2022/08/19 06:17:01;;;;;;;88.10;43.63;;;;;;;22.93;100.00;101244.72;5076719;28;20067;-51
2022/08/19 06:19:29;;;;;;;92.23;44.17;;;;;;;22.94;100.00;101245.53;5080522;28;20051;-45
2022/08/19 06:21:56;;;;;;;107.07;46.67;;;;;;;23.13;100.00;101252.13;5074963;28;20036;-49
2022/08/19 06:24:24;;;;;;;103.33;47.00;;;;;;;22.84;100.00;101244.44;5078063;28;20089;-48
2022/08/19 06:26:51;;;;;;;105.37;48.17;;;;;;;22.87;100.00;101240.34;5077404;28;20096;-47
2022/08/19 06:29:18;;;;;;;105.27;48.60;;;;;;;22.86;100.00;101236.78;5080709;28;20047;-47
2022/08/19 06:31:49;;;;;;;116.30;50.97;;;;;;;22.83;100.00;101244.69;5075376;28;20051;-47
2022/08/19 06:34:15;;;;;;;112.63;50.30;;;;;;;23.35;100.00;101245.63;5073426;28;20096;-48
2022/08/19 06:36:44;;;;;;;109.60;48.03;;;;;;;22.99;100.00;101248.28;5075454;28;20032;-46
2022/08/19 06:39:16;;;;;;;104.30;48.40;;;;;;;23.26;100.00;101253.53;5074162;28;20032;-49
2022/08/19 06:41:45;;;;;;;104.10;47.27;;;;;;;23.22;100.00;101237.97;5071534;28;20035;-49
2022/08/19 06:44:17;;;;;;;107.33;49.80;;;;;;;23.60;100.00;101249.44;5073645;28;20051;-52
2022/08/19 06:46:43;;;;;;;114.77;51.20;;;;;;;23.51;100.00;101254.63;5079724;28;20039;-46
2022/08/19 06:49:13;;;;;;;110.63;50.50;;;;;;;22.98;100.00;101261.09;5078904;28;20049;-48
2022/08/19 06:51:44;;;;;;;109.37;48.57;;;;;;;23.03;100.00;101258.38;5076690;28;20024;-50
2022/08/19 06:54:10;;;;;;;108.17;49.50;;;;;;;23.29;100.00;101250.25;5072751;28;20032;-46
2022/08/19 06:56:36;;;;;;;;;;;;;;;23.58;100.00;101249.72;5077536;28;20079;-47
2022/08/19 06:59:04;;;;;;;100.20;47.10;;;;;;;23.59;100.00;101251.38;5078636;28;19917;-48
2022/08/19 07:01:34;;;;;;;101.53;47.20;;;;;;;23.49;100.00;101252.19;5077291;28;20040;-48
2022/08/19 07:04:00;;;;;;;106.53;47.73;;;;;;;23.60;100.00;101257.63;5072628;28;20069;-50
2022/08/19 07:06:25;;;;;;;101.47;46.17;;;;;;;23.38;100.00;101271.56;5077389;28;20048;-48
2022/08/19 07:08:51;;;;;;;93.50;45.00;;;;;;;23.44;100.00;101263.09;5076215;28;20033;-48
2022/08/19 07:11:18;;;;;;;100.03;44.20;;;;;;;23.39;100.00;101263.09;5075046;28;20055;-48
2022/08/19 07:13:45;;;;;;;96.77;42.77;;;;;;;23.83;100.00;101263.63;5071064;28;20033;-49
2022/08/19 07:16:15;;;;;;;89.03;42.17;;;;;;;24.19;100.00;101267.13;5076066;28;20032;-49
2022/08/19 07:18:40;;;;;;;99.97;45.60;;;;;;;23.91;100.00;101265.81;5079495;28;20018;-46
2022/08/19 07:21:26;;;;;;;92.10;43.50;;;;;;;23.91;100.00;101263.88;5078090;28;20052;-49
2022/08/19 07:23:52;;;;;;;83.00;41.87;;;;;;;24.32;100.00;101263.00;5077101;28;20033;-47
2022/08/19 07:26:28;;;;;;;89.78;42.25;;;;;;;24.24;100.00;101260.03;5080897;28;20051;-51
2022/08/19 07:28:54;;;;;;;82.15;41.03;;;;;;;23.84;100.00;101263.34;5078766;28;20029;-47
2022/08/19 07:31:22;;;;;;;85.50;40.37;;;;;;;23.99;100.00;101259.78;5085688;28;20100;-45
2022/08/19 07:33:51;;;;;;;80.20;39.10;;;;;;;24.12;100.00;101258.41;5077312;28;20148;-48
2022/08/19 07:36:20;;;;;;;74.23;38.83;;;;;;;24.40;100.00;101258.88;5074179;28;20033;-47
2022/08/19 07:38:48;;;;;;;73.03;37.57;;;;;;;24.51;100.00;101256.13;5075316;28;20049;-49
2022/08/19 07:41:17;;;;;;;79.47;37.23;;;;;;;23.81;100.00;101269.38;5071707;28;20033;-48
2022/08/19 07:43:43;;;;;;;65.80;33.97;;;;;;;23.90;100.00;101264.19;5077800;28;20044;-50
2022/08/19 07:46:10;;;;;;;68.15;35.25;;;;;;;23.36;100.00;101273.75;5076285;28;20047;-48
2022/08/19 07:48:36;;;;;;;71.40;34.27;;;;;;;23.73;100.00;101280.81;5079997;28;20036;-49
2022/08/19 07:51:07;;;;;;;75.33;35.10;;;;;;;23.96;100.00;101271.25;5077139;28;20059;-50
2022/08/19 07:53:32;;;;;;;64.43;33.70;;;;;;;24.30;100.00;101275.31;5078488;28;20036;-50
2022/08/19 07:56:01;;;;;;;65.00;34.22;;;;;;;24.37;100.00;101278.56;5077242;28;20084;-48
2022/08/19 07:58:27;;;;;;;66.57;33.40;;;;;;;24.01;100.00;101279.47;5078621;28;20036;-50
2022/08/19 08:00:53;;;;;;;60.33;32.87;;;;;;;24.39;100.00;101284.56;5080236;28;20097;-50
2022/08/19 08:09:10;;;;;;;;;;;;;;;23.88;100.00;101290.94;5078777;28;20037;-50
2022/08/19 08:09:10;;;;;;;63.37;34.50;;;;;;;24.11;100.00;101299.69;5079104;28;20025;-47
2022/08/19 08:11:42;;;;;;;68.70;33.83;;;;;;;23.89;100.00;101307.03;5075174;28;20045;-50
2022/08/19 08:14:09;;;;;;;60.43;33.20;;;;;;;24.52;100.00;101298.75;5080462;28;20088;-50
2022/08/19 08:16:37;;;;;;;58.77;32.27;;;;;;;24.79;100.00;101297.56;5078375;28;20036;-53
2022/08/19 08:19:05;;;;;;;60.53;31.27;;;;;;;24.77;100.00;101301.41;5079534;28;20140;-47
2022/08/19 08:21:32;;;;;;;65.20;33.10;;;;;;;24.62;100.00;101310.47;5080439;28;20033;-47
2022/08/19 08:23:58;;;;;;;56.67;29.83;;;;;;;24.03;100.00;101320.19;5082327;28;20028;-49
2022/08/19 08:26:24;;;;;;;53.33;27.67;;;;;;;24.05;100.00;101318.78;5079792;28;20040;-46
2022/08/19 08:28:51;;;;;;;57.63;30.33;;;;;;;24.62;100.00;101313.19;5081242;28;20063;-46
2022/08/19 08:31:18;;;;;;;64.90;32.67;;;;;;;24.69;100.00;101326.59;5075217;28;20093;-45
2022/08/19 08:33:45;;;;;;;71.73;33.10;;;;;;;24.98;100.00;101323.19;5084389;28;20048;-47
2022/08/19 08:36:13;;;;;;;68.77;32.33;;;;;;;24.89;100.00;101319.38;5079813;28;20032;-48
2022/08/19 08:38:40;;;;;;;63.63;31.90;;;;;;;25.44;100.00;101330.28;5080199;28;20033;-50
2022/08/19 08:41:19;;;;;;;64.93;30.93;;;;;;;24.84;100.00;101330.34;5079852;28;20028;-50
2022/08/19 08:43:46;;;;;;;60.87;30.90;;;;;;;24.74;100.00;101339.41;5078166;28;20044;-47
2022/08/19 08:46:17;;;;;;;61.47;30.53;;;;;;;24.90;100.00;101340.16;5076497;28;20100;-47
2022/08/19 08:49:01;;;;;;;60.00;30.43;;;;;;;24.82;100.00;101340.75;5078342;28;20043;-48
2022/08/19 08:51:38;;;;;;;56.97;28.73;;;;;;;25.05;100.00;101334.63;5074429;28;20040;-48
2022/08/19 08:54:11;;;;;;;72.85;33.88;;;;;;;25.29;100.00;101333.94;5075620;28;20051;-46
2022/08/19 08:56:39;;;;;;;60.67;31.03;;;;;;;25.10;100.00;101331.06;5078386;28;20060;-48
2022/08/19 08:59:20;;;;;;;68.17;33.90;;;;;;;25.29;100.00;101344.09;5073714;28;20048;-51
2022/08/19 09:01:46;;;;;;;62.73;31.17;;;;;;;25.12;100.00;101345.28;5083305;28;20028;-48
2022/08/19 09:04:13;;;;;;;70.78;31.73;;;;;;;25.58;100.00;101351.59;5079267;28;20036;-48
2022/08/19 09:06:46;;;;;;;66.07;31.27;;;;;;;25.93;100.00;101346.91;5080450;28;20066;-46
2022/08/19 09:09:34;;;;;;;56.93;26.77;;;;;;;25.74;100.00;101338.59;5083906;28;20039;-49
2022/08/19 09:12:35;;;;;;;55.43;26.90;;;;;;;25.96;100.00;101340.06;5076167;28;20048;-50
2022/08/19 09:15:08;;;;;;;46.87;23.87;;;;;;;26.75;100.00;101342.50;5079254;28;20035;-50
2022/08/19 09:17:34;;;;;;;41.27;23.30;;;;;;;26.18;100.00;101340.41;5079105;28;20033;-48
2022/08/19 09:20:23;;;;;;;48.80;25.33;;;;;;;26.49;100.00;101336.53;5081545;28;20058;-49
2022/08/19 09:22:50;;;;;;;51.43;24.90;;;;;;;26.84;100.00;101333.66;5077324;28;20107;-47
2022/08/19 09:25:21;;;;;;;50.63;26.77;;;;;;;27.23;100.00;101337.25;5080323;28;20055;-50
2022/08/19 09:27:49;;;;;;;51.60;24.87;;;;;;;27.77;100.00;101340.56;5080706;28;20041;-49
2022/08/19 09:30:18;;;;;;;46.93;25.23;;;;;;;28.12;100.00;101345.75;5075766;28;20041;-49
2022/08/19 09:32:45;;;;;;;50.80;23.60;;;;;;;27.61;100.00;101349.06;5080489;28;20044;-49
2022/08/19 09:35:12;;;;;;;49.97;25.80;;;;;;;26.95;100.00;101346.13;5081571;28;20044;-50
2022/08/19 09:37:43;;;;;;;49.20;24.77;;;;;;;26.85;100.00;101341.59;5080676;28;20036;-54
2022/08/19 09:40:10;;;;;;;;;;;;;;;27.76;100.00;101355.44;5079120;28;20032;-51
2022/08/19 09:42:37;;;;;;;48.47;22.33;;;;;;;28.76;100.00;101354.13;5079731;28;19913;-51
2022/08/19 09:45:04;;;;;;;42.10;22.03;;;;;;;27.81;100.00;101358.09;5079662;28;20044;-51
2022/08/19 09:47:32;;;;;;;46.73;22.90;;;;;;;27.91;100.00;101359.84;5079282;28;20068;-53
2022/08/19 09:49:58;;;;;;;41.70;22.30;;;;;;;27.54;100.00;101350.56;5072838;28;20097;-47
2022/08/19 09:52:23;;;;;;;;;;;;;;;27.46;100.00;101352.84;5073546;28;20040;-51
2022/08/19 09:54:52;;;;;;;42.50;23.10;;;;;;;27.54;100.00;101358.78;5081897;28;19925;-49
2022/08/19 09:57:18;;;;;;;41.40;21.77;;;;;;;27.80;100.00;101361.94;5080942;28;20035;-48
2022/08/19 09:59:44;;;;;;;42.00;24.37;;;;;;;27.41;100.00;101358.41;5076519;28;20092;-47
2022/08/19 10:02:11;;;;;;;46.80;25.30;;;;;;;27.39;100.00;101360.66;5077712;28;20028;-49
2022/08/19 10:07:21;;;;;;;52.50;23.73;;;;;;;26.75;100.00;101356.22;5082118;28;20029;-51
2022/08/19 10:09:47;;;;;;;48.17;23.73;;;;;;;26.67;100.00;101359.63;5083229;28;20119;-49
2022/08/19 10:12:13;;;;;;;;;;;;;;;26.54;100.00;101360.34;5082786;28;20028;-46
2022/08/19 10:14:39;;;;;;;41.88;22.42;;;;;;;26.40;100.00;101365.69;5078945;28;19955;-46
2022/08/19 10:17:05;;;;;;;47.63;24.90;;;;;;;26.49;100.00;101364.75;5077231;28;20040;-48
2022/08/19 10:19:32;;;;;;;42.42;22.33;;;;;;;26.53;100.00;101364.19;5079625;28;20044;-52
2022/08/19 10:21:57;;;;;;;51.90;24.73;;;;;;;26.60;100.00;101348.19;5080348;28;20041;-46
2022/08/19 10:24:24;;;;;;;;;;;;;;;26.60;100.00;101350.94;5074768;28;20032;-49
2022/08/19 10:26:49;;;;;;;48.10;23.63;;;;;;;27.14;100.00;101353.59;5076803;28;19923;-47
2022/08/19 10:29:16;;;;;;;;;;;;;;;27.00;100.00;101356.25;5075349;28;20033;-46
2022/08/19 10:31:42;;;;;;;50.30;25.63;;;;;;;26.83;100.00;101351.22;5080211;28;19934;-51
2022/08/19 10:34:07;;;;;;;50.57;25.77;;;;;;;27.27;100.00;101343.78;5078124;28;20033;-48
2022/08/19 10:36:35;;;;;;;;;;;;;;;26.89;100.00;101344.59;5075722;28;20040;-49
2022/08/19 10:39:04;;;;;;;51.20;25.50;;;;;;;26.99;100.00;101349.94;5074686;28;19921;-47
2022/08/19 10:41:33;;;;;;;46.80;24.80;;;;;;;27.42;100.00;101350.97;5079829;28;20063;-51
2022/08/19 10:44:02;;;;;;;50.27;25.97;;;;;;;27.28;100.00;101349.00;5082860;28;20048;-47
2022/08/19 10:46:32;;;;;;;41.83;23.67;;;;;;;27.59;100.00;101351.28;5081193;28;20033;-47
2022/08/19 10:48:58;;;;;;;55.37;25.80;;;;;;;27.85;100.00;101344.56;5077613;28;20021;-47
2022/08/19 10:54:08;;;;;;;44.67;23.47;;;;;;;28.26;100.00;101348.53;5072549;28;20037;-49
2022/08/19 10:56:52;;;;;;;;;;;;;;;28.74;100.00;101339.88;5072466;28;20063;-48
2022/08/19 10:59:27;;;;;;;42.37;24.07;;;;;;;28.77;100.00;101338.47;5078774;28;19917;-47
2022/08/19 11:01:58;;;;;;;41.65;24.38;;;;;;;29.75;100.00;101344.53;5075277;28;20059;-46
2022/08/19 11:04:24;;;;;;;41.17;23.40;;;;;;;29.36;100.00;101348.72;5079025;28;20028;-50
2022/08/19 11:06:50;;;;;;;44.15;24.45;;;;;;;30.52;100.00;101348.31;5074230;28;20063;-48
2022/08/19 11:09:25;;;;;;;38.35;21.60;;;;;;;31.59;100.00;101342.63;5077874;28;20029;-49
2022/08/19 11:11:53;;;;;;;32.88;20.45;;;;;;;31.38;100.00;101346.06;5073719;28;20028;-47
2022/08/19 11:14:20;;;;;;;36.47;21.98;;;;;;;31.29;100.00;101342.50;5082327;28;20041;-49
2022/08/19 11:16:46;;;;;;;41.47;20.77;;;;;;;30.87;100.00;101348.41;5078158;28;20059;-49
2022/08/19 11:19:15;;;;;;;33.80;20.92;;;;;;;30.03;100.00;101349.91;5076693;28;20052;-50
2022/08/19 11:21:44;;;;;;;36.13;20.95;;;;;;;29.24;100.00;101351.25;5074607;28;20053;-54
2022/08/19 11:24:20;;;;;;;37.88;23.42;;;;;;;29.20;100.00;101337.28;5075679;28;20033;-53
2022/08/19 11:26:48;;;;;;;35.50;21.17;;;;;;;29.50;100.00;101348.72;5072936;28;20174;-49
2022/08/19 11:29:13;;;;;;;37.90;20.90;;;;;;;31.13;100.00;101339.34;5073588;28;20032;-55
2022/08/19 11:31:42;;;;;;;41.47;21.55;;;;;;;32.43;100.00;101350.53;5077331;28;20040;-46